sensor_id;sensor_type;location;lat;lon;timestamp;temperature;humidity
39519;DHT22;25200;53.394;10.414;2023-07-24T00:01:51;18.60;77.10
39519;DHT22;25200;53.394;10.414;2023-07-24T00:04:17;18.60;77.20
39519;DHT22;25200;53.394;10.414;2023-07-24T00:06:42;18.60;77.30
39519;DHT22;25200;53.394;10.414;2023-07-24T00:09:08;18.60;77.30
39519;DHT22;25200;53.394;10.414;2023-07-24T00:11:34;18.60;77.30
39519;DHT22;25200;53.394;10.414;2023-07-24T00:13:59;18.60;77.30
39519;DHT22;25200;53.394;10.414;2023-07-24T00:16:25;18.60;77.20
39519;DHT22;25200;53.394;10.414;2023-07-24T00:18:51;18.60;77.20
39519;DHT22;25200;53.394;10.414;2023-07-24T00:21:16;18.70;77.30
39519;DHT22;25200;53.394;10.414;2023-07-24T00:23:42;18.60;77.20
39519;DHT22;25200;53.394;10.414;2023-07-24T00:26:07;18.70;77.40
39519;DHT22;25200;53.394;10.414;2023-07-24T00:28:33;18.70;77.30
39519;DHT22;25200;53.394;10.414;2023-07-24T00:30:59;18.70;77.20
39519;DHT22;25200;53.394;10.414;2023-07-24T00:33:24;18.70;77.20
39519;DHT22;25200;53.394;10.414;2023-07-24T00:35:50;18.70;77.30
39519;DHT22;25200;53.394;10.414;2023-07-24T00:38:15;18.70;77.20
39519;DHT22;25200;53.394;10.414;2023-07-24T00:40:41;18.80;77.30
39519;DHT22;25200;53.394;10.414;2023-07-24T00:43:07;18.70;77.20
39519;DHT22;25200;53.394;10.414;2023-07-24T00:45:32;18.80;77.40
39519;DHT22;25200;53.394;10.414;2023-07-24T00:47:59;18.80;77.40
39519;DHT22;25200;53.394;10.414;2023-07-24T00:50:25;18.80;77.40
39519;DHT22;25200;53.394;10.414;2023-07-24T00:52:52;18.80;77.40
39519;DHT22;25200;53.394;10.414;2023-07-24T00:55:17;18.80;77.50
39519;DHT22;25200;53.394;10.414;2023-07-24T00:57:44;18.80;77.40
39519;DHT22;25200;53.394;10.414;2023-07-24T01:00:10;18.80;77.40
39519;DHT22;25200;53.394;10.414;2023-07-24T01:02:37;18.80;77.40
39519;DHT22;25200;53.394;10.414;2023-07-24T01:05:03;18.80;77.50
39519;DHT22;25200;53.394;10.414;2023-07-24T01:07:29;18.70;77.40
39519;DHT22;25200;53.394;10.414;2023-07-24T01:09:55;18.70;77.40
39519;DHT22;25200;53.394;10.414;2023-07-24T01:12:48;18.80;77.50
39519;DHT22;25200;53.394;10.414;2023-07-24T01:15:22;18.70;77.40
39519;DHT22;25200;53.394;10.414;2023-07-24T01:17:57;18.70;77.50
39519;DHT22;25200;53.394;10.414;2023-07-24T01:20:26;18.70;78.10
39519;DHT22;25200;53.394;10.414;2023-07-24T01:25:32;18.80;77.70
39519;DHT22;25200;53.394;10.414;2023-07-24T01:28:01;18.70;77.50
39519;DHT22;25200;53.394;10.414;2023-07-24T01:30:26;18.80;77.70
39519;DHT22;25200;53.394;10.414;2023-07-24T01:32:52;18.70;77.60
39519;DHT22;25200;53.394;10.414;2023-07-24T01:35:18;18.70;77.70
39519;DHT22;25200;53.394;10.414;2023-07-24T01:37:46;18.80;77.80
39519;DHT22;25200;53.394;10.414;2023-07-24T01:40:12;18.80;77.70
39519;DHT22;25200;53.394;10.414;2023-07-24T01:42:38;18.70;77.80
39519;DHT22;25200;53.394;10.414;2023-07-24T01:45:05;18.70;77.90
39519;DHT22;25200;53.394;10.414;2023-07-24T01:47:30;18.70;77.90
39519;DHT22;25200;53.394;10.414;2023-07-24T01:49:56;18.70;77.80
39519;DHT22;25200;53.394;10.414;2023-07-24T01:52:22;18.70;77.90
39519;DHT22;25200;53.394;10.414;2023-07-24T01:54:48;18.70;77.80
39519;DHT22;25200;53.394;10.414;2023-07-24T01:57:14;18.70;77.90
39519;DHT22;25200;53.394;10.414;2023-07-24T01:59:39;18.70;77.90
39519;DHT22;25200;53.394;10.414;2023-07-24T02:02:05;18.70;77.90
39519;DHT22;25200;53.394;10.414;2023-07-24T02:04:31;18.70;77.90
39519;DHT22;25200;53.394;10.414;2023-07-24T02:06:56;18.70;77.90
39519;DHT22;25200;53.394;10.414;2023-07-24T02:09:22;18.70;77.80
39519;DHT22;25200;53.394;10.414;2023-07-24T02:11:47;18.70;77.80
39519;DHT22;25200;53.394;10.414;2023-07-24T02:14:14;18.70;77.90
39519;DHT22;25200;53.394;10.414;2023-07-24T02:16:41;18.70;77.80
39519;DHT22;25200;53.394;10.414;2023-07-24T02:19:07;18.70;78.20
39519;DHT22;25200;53.394;10.414;2023-07-24T02:21:33;18.80;78.00
39519;DHT22;25200;53.394;10.414;2023-07-24T02:23:58;18.80;77.90
39519;DHT22;25200;53.394;10.414;2023-07-24T02:26:24;18.80;78.00
39519;DHT22;25200;53.394;10.414;2023-07-24T02:28:50;18.80;77.90
39519;DHT22;25200;53.394;10.414;2023-07-24T02:31:15;18.80;77.90
39519;DHT22;25200;53.394;10.414;2023-07-24T02:33:41;18.80;77.90
39519;DHT22;25200;53.394;10.414;2023-07-24T02:36:07;18.80;77.90
39519;DHT22;25200;53.394;10.414;2023-07-24T02:38:32;18.80;77.90
39519;DHT22;25200;53.394;10.414;2023-07-24T02:40:58;18.80;78.00
39519;DHT22;25200;53.394;10.414;2023-07-24T02:43:24;18.80;77.90
39519;DHT22;25200;53.394;10.414;2023-07-24T02:45:49;18.80;78.00
39519;DHT22;25200;53.394;10.414;2023-07-24T02:48:15;18.80;78.10
39519;DHT22;25200;53.394;10.414;2023-07-24T02:50:41;18.80;78.20
39519;DHT22;25200;53.394;10.414;2023-07-24T02:53:06;18.80;78.00
39519;DHT22;25200;53.394;10.414;2023-07-24T02:55:32;18.80;78.10
39519;DHT22;25200;53.394;10.414;2023-07-24T02:57:58;18.80;78.10
39519;DHT22;25200;53.394;10.414;2023-07-24T03:00:24;18.80;77.90
39519;DHT22;25200;53.394;10.414;2023-07-24T03:02:50;18.80;78.20
39519;DHT22;25200;53.394;10.414;2023-07-24T03:05:15;18.80;78.20
39519;DHT22;25200;53.394;10.414;2023-07-24T03:07:41;18.80;78.20
39519;DHT22;25200;53.394;10.414;2023-07-24T03:10:07;18.80;78.20
39519;DHT22;25200;53.394;10.414;2023-07-24T03:12:33;18.80;78.30
39519;DHT22;25200;53.394;10.414;2023-07-24T03:14:59;18.70;78.20
39519;DHT22;25200;53.394;10.414;2023-07-24T03:17:24;18.70;78.40
39519;DHT22;25200;53.394;10.414;2023-07-24T03:19:50;18.70;78.40
39519;DHT22;25200;53.394;10.414;2023-07-24T03:22:15;18.70;78.40
39519;DHT22;25200;53.394;10.414;2023-07-24T03:24:41;18.70;78.40
39519;DHT22;25200;53.394;10.414;2023-07-24T03:27:07;18.70;78.30
39519;DHT22;25200;53.394;10.414;2023-07-24T03:29:32;18.70;78.40
39519;DHT22;25200;53.394;10.414;2023-07-24T03:31:58;18.70;78.30
39519;DHT22;25200;53.394;10.414;2023-07-24T03:34:24;18.70;78.30
39519;DHT22;25200;53.394;10.414;2023-07-24T03:36:50;18.70;78.20
39519;DHT22;25200;53.394;10.414;2023-07-24T03:39:15;18.70;78.20
39519;DHT22;25200;53.394;10.414;2023-07-24T03:41:42;18.70;78.40
39519;DHT22;25200;53.394;10.414;2023-07-24T03:44:08;18.70;78.30
39519;DHT22;25200;53.394;10.414;2023-07-24T03:46:34;18.70;78.50
39519;DHT22;25200;53.394;10.414;2023-07-24T03:49:00;18.70;78.50
39519;DHT22;25200;53.394;10.414;2023-07-24T03:51:25;18.70;78.60
39519;DHT22;25200;53.394;10.414;2023-07-24T03:53:51;18.70;78.40
39519;DHT22;25200;53.394;10.414;2023-07-24T03:56:17;18.60;78.30
39519;DHT22;25200;53.394;10.414;2023-07-24T03:58:42;18.60;78.30
39519;DHT22;25200;53.394;10.414;2023-07-24T04:01:08;18.60;78.50
39519;DHT22;25200;53.394;10.414;2023-07-24T04:03:35;18.60;78.50
39519;DHT22;25200;53.394;10.414;2023-07-24T04:06:01;18.60;78.60
39519;DHT22;25200;53.394;10.414;2023-07-24T04:08:27;18.60;78.60
39519;DHT22;25200;53.394;10.414;2023-07-24T04:10:53;18.60;78.60
39519;DHT22;25200;53.394;10.414;2023-07-24T04:13:18;18.60;78.60
39519;DHT22;25200;53.394;10.414;2023-07-24T04:15:44;18.60;78.60
39519;DHT22;25200;53.394;10.414;2023-07-24T04:18:10;18.60;79.10
39519;DHT22;25200;53.394;10.414;2023-07-24T04:20:36;18.60;78.60
39519;DHT22;25200;53.394;10.414;2023-07-24T04:23:02;18.60;78.60
39519;DHT22;25200;53.394;10.414;2023-07-24T04:25:27;18.60;78.60
39519;DHT22;25200;53.394;10.414;2023-07-24T04:27:53;18.60;78.70
39519;DHT22;25200;53.394;10.414;2023-07-24T04:30:19;18.60;78.50
39519;DHT22;25200;53.394;10.414;2023-07-24T04:32:44;18.60;78.50
39519;DHT22;25200;53.394;10.414;2023-07-24T04:35:11;18.70;78.70
39519;DHT22;25200;53.394;10.414;2023-07-24T04:37:37;18.70;78.60
39519;DHT22;25200;53.394;10.414;2023-07-24T04:40:03;18.70;78.70
39519;DHT22;25200;53.394;10.414;2023-07-24T04:42:28;18.70;78.50
39519;DHT22;25200;53.394;10.414;2023-07-24T04:44:54;18.70;78.60
39519;DHT22;25200;53.394;10.414;2023-07-24T04:47:20;18.70;78.60
39519;DHT22;25200;53.394;10.414;2023-07-24T04:49:45;18.80;78.60
39519;DHT22;25200;53.394;10.414;2023-07-24T04:52:11;18.70;78.60
39519;DHT22;25200;53.394;10.414;2023-07-24T04:54:37;18.80;78.60
39519;DHT22;25200;53.394;10.414;2023-07-24T04:57:03;18.80;78.50
39519;DHT22;25200;53.394;10.414;2023-07-24T04:59:28;18.80;78.50
39519;DHT22;25200;53.394;10.414;2023-07-24T05:01:54;18.80;78.60
39519;DHT22;25200;53.394;10.414;2023-07-24T05:04:19;18.70;78.60
39519;DHT22;25200;53.394;10.414;2023-07-24T05:06:45;18.80;78.70
39519;DHT22;25200;53.394;10.414;2023-07-24T05:09:11;18.70;78.50
39519;DHT22;25200;53.394;10.414;2023-07-24T05:11:36;18.80;78.70
39519;DHT22;25200;53.394;10.414;2023-07-24T05:14:02;18.80;78.50
39519;DHT22;25200;53.394;10.414;2023-07-24T05:16:28;18.80;78.60
39519;DHT22;25200;53.394;10.414;2023-07-24T05:18:53;18.90;78.70
39519;DHT22;25200;53.394;10.414;2023-07-24T05:21:19;18.90;78.50
39519;DHT22;25200;53.394;10.414;2023-07-24T05:23:44;18.90;78.50
39519;DHT22;25200;53.394;10.414;2023-07-24T05:26:10;19.00;78.90
39519;DHT22;25200;53.394;10.414;2023-07-24T05:28:36;19.10;78.40
39519;DHT22;25200;53.394;10.414;2023-07-24T05:31:03;19.10;78.50
39519;DHT22;25200;53.394;10.414;2023-07-24T05:33:29;19.20;78.50
39519;DHT22;25200;53.394;10.414;2023-07-24T05:36:02;19.20;78.60
39519;DHT22;25200;53.394;10.414;2023-07-24T05:38:28;19.30;78.50
39519;DHT22;25200;53.394;10.414;2023-07-24T05:40:58;19.40;78.70
39519;DHT22;25200;53.394;10.414;2023-07-24T05:43:25;19.50;78.60
39519;DHT22;25200;53.394;10.414;2023-07-24T05:45:54;19.60;78.80
39519;DHT22;25200;53.394;10.414;2023-07-24T05:48:20;19.70;78.70
39519;DHT22;25200;53.394;10.414;2023-07-24T05:50:46;19.80;78.50
39519;DHT22;25200;53.394;10.414;2023-07-24T05:53:13;19.80;78.60
39519;DHT22;25200;53.394;10.414;2023-07-24T05:55:39;19.90;78.40
39519;DHT22;25200;53.394;10.414;2023-07-24T05:58:04;19.90;78.30
39519;DHT22;25200;53.394;10.414;2023-07-24T06:00:30;20.00;78.30
39519;DHT22;25200;53.394;10.414;2023-07-24T06:02:56;20.00;78.40
39519;DHT22;25200;53.394;10.414;2023-07-24T06:05:21;20.10;78.60
39519;DHT22;25200;53.394;10.414;2023-07-24T06:07:47;20.20;78.50
39519;DHT22;25200;53.394;10.414;2023-07-24T06:10:13;20.20;78.30
39519;DHT22;25200;53.394;10.414;2023-07-24T06:12:39;20.30;78.40
39519;DHT22;25200;53.394;10.414;2023-07-24T06:15:05;20.40;78.50
39519;DHT22;25200;53.394;10.414;2023-07-24T06:17:31;20.40;78.70
39519;DHT22;25200;53.394;10.414;2023-07-24T06:19:57;20.40;78.30
39519;DHT22;25200;53.394;10.414;2023-07-24T06:22:22;20.50;78.30
39519;DHT22;25200;53.394;10.414;2023-07-24T06:24:48;20.60;78.20
39519;DHT22;25200;53.394;10.414;2023-07-24T06:27:14;20.70;78.20
39519;DHT22;25200;53.394;10.414;2023-07-24T06:29:40;20.70;78.30
39519;DHT22;25200;53.394;10.414;2023-07-24T06:32:06;20.80;78.10
39519;DHT22;25200;53.394;10.414;2023-07-24T06:34:32;20.80;78.00
39519;DHT22;25200;53.394;10.414;2023-07-24T06:36:58;20.80;77.90
39519;DHT22;25200;53.394;10.414;2023-07-24T06:39:24;20.80;78.10
39519;DHT22;25200;53.394;10.414;2023-07-24T06:41:52;20.80;77.90
39519;DHT22;25200;53.394;10.414;2023-07-24T06:44:19;20.80;78.20
39519;DHT22;25200;53.394;10.414;2023-07-24T06:46:44;20.80;78.10
39519;DHT22;25200;53.394;10.414;2023-07-24T06:49:10;20.70;78.10
39519;DHT22;25200;53.394;10.414;2023-07-24T06:51:37;20.70;78.00
39519;DHT22;25200;53.394;10.414;2023-07-24T06:54:04;20.70;78.00
39519;DHT22;25200;53.394;10.414;2023-07-24T06:56:30;20.60;77.90
39519;DHT22;25200;53.394;10.414;2023-07-24T06:58:56;20.60;78.10
39519;DHT22;25200;53.394;10.414;2023-07-24T07:01:22;20.60;78.00
39519;DHT22;25200;53.394;10.414;2023-07-24T07:03:47;20.60;78.30
39519;DHT22;25200;53.394;10.414;2023-07-24T07:06:13;20.60;78.10
39519;DHT22;25200;53.394;10.414;2023-07-24T07:08:39;20.60;78.20
39519;DHT22;25200;53.394;10.414;2023-07-24T07:11:05;20.60;78.30
39519;DHT22;25200;53.394;10.414;2023-07-24T07:13:30;20.60;78.10
39519;DHT22;25200;53.394;10.414;2023-07-24T07:15:56;20.60;78.00
39519;DHT22;25200;53.394;10.414;2023-07-24T07:18:22;20.60;78.20
39519;DHT22;25200;53.394;10.414;2023-07-24T07:20:49;20.60;78.00
39519;DHT22;25200;53.394;10.414;2023-07-24T07:23:15;20.60;78.10
39519;DHT22;25200;53.394;10.414;2023-07-24T07:25:41;20.50;78.00
39519;DHT22;25200;53.394;10.414;2023-07-24T07:28:09;20.50;77.90
39519;DHT22;25200;53.394;10.414;2023-07-24T07:30:34;20.40;77.90
39519;DHT22;25200;53.394;10.414;2023-07-24T07:33:00;20.40;78.10
39519;DHT22;25200;53.394;10.414;2023-07-24T07:35:26;20.30;78.00
39519;DHT22;25200;53.394;10.414;2023-07-24T07:37:52;20.30;78.10
39519;DHT22;25200;53.394;10.414;2023-07-24T07:40:18;20.20;78.30
39519;DHT22;25200;53.394;10.414;2023-07-24T07:42:43;20.20;78.20
39519;DHT22;25200;53.394;10.414;2023-07-24T07:45:10;20.20;78.20
39519;DHT22;25200;53.394;10.414;2023-07-24T07:47:36;20.10;78.30
39519;DHT22;25200;53.394;10.414;2023-07-24T07:50:02;20.20;78.50
39519;DHT22;25200;53.394;10.414;2023-07-24T07:52:28;20.10;78.40
39519;DHT22;25200;53.394;10.414;2023-07-24T07:54:54;20.10;78.30
39519;DHT22;25200;53.394;10.414;2023-07-24T07:57:19;20.10;78.50
39519;DHT22;25200;53.394;10.414;2023-07-24T07:59:45;20.10;78.50
39519;DHT22;25200;53.394;10.414;2023-07-24T08:02:10;20.10;78.50
39519;DHT22;25200;53.394;10.414;2023-07-24T08:04:36;20.10;78.50
39519;DHT22;25200;53.394;10.414;2023-07-24T08:07:02;20.10;78.70
39519;DHT22;25200;53.394;10.414;2023-07-24T08:09:28;20.00;78.60
39519;DHT22;25200;53.394;10.414;2023-07-24T08:11:53;20.00;78.60
39519;DHT22;25200;53.394;10.414;2023-07-24T08:14:19;20.00;78.80
39519;DHT22;25200;53.394;10.414;2023-07-24T08:16:48;20.00;78.90
39519;DHT22;25200;53.394;10.414;2023-07-24T08:19:13;20.00;78.80
39519;DHT22;25200;53.394;10.414;2023-07-24T08:21:39;20.00;78.80
39519;DHT22;25200;53.394;10.414;2023-07-24T08:24:06;20.00;78.80
39519;DHT22;25200;53.394;10.414;2023-07-24T08:26:31;20.00;78.90
39519;DHT22;25200;53.394;10.414;2023-07-24T08:28:57;20.00;78.90
39519;DHT22;25200;53.394;10.414;2023-07-24T08:31:23;20.00;78.70
39519;DHT22;25200;53.394;10.414;2023-07-24T08:33:48;20.00;78.70
39519;DHT22;25200;53.394;10.414;2023-07-24T08:36:14;20.00;78.60
39519;DHT22;25200;53.394;10.414;2023-07-24T08:38:40;20.10;78.70
39519;DHT22;25200;53.394;10.414;2023-07-24T08:43:33;20.10;79.00
39519;DHT22;25200;53.394;10.414;2023-07-24T08:46:00;20.20;79.10
39519;DHT22;25200;53.394;10.414;2023-07-24T08:48:29;20.30;79.40
39519;DHT22;25200;53.394;10.414;2023-07-24T08:50:56;20.30;79.20
39519;DHT22;25200;53.394;10.414;2023-07-24T08:53:23;20.40;79.40
39519;DHT22;25200;53.394;10.414;2023-07-24T08:55:49;20.40;79.50
39519;DHT22;25200;53.394;10.414;2023-07-24T08:58:17;20.50;79.60
39519;DHT22;25200;53.394;10.414;2023-07-24T09:00:43;20.60;79.60
39519;DHT22;25200;53.394;10.414;2023-07-24T09:03:09;20.70;79.50
39519;DHT22;25200;53.394;10.414;2023-07-24T09:05:35;20.80;79.50
39519;DHT22;25200;53.394;10.414;2023-07-24T09:08:01;20.90;79.40
39519;DHT22;25200;53.394;10.414;2023-07-24T09:10:27;21.00;79.60
39519;DHT22;25200;53.394;10.414;2023-07-24T09:12:53;21.00;79.30
39519;DHT22;25200;53.394;10.414;2023-07-24T09:15:19;21.10;79.30
39519;DHT22;25200;53.394;10.414;2023-07-24T09:17:49;21.10;79.10
39519;DHT22;25200;53.394;10.414;2023-07-24T09:20:15;21.20;79.10
39519;DHT22;25200;53.394;10.414;2023-07-24T09:22:51;21.30;78.90
39519;DHT22;25200;53.394;10.414;2023-07-24T09:25:17;21.30;78.90
39519;DHT22;25200;53.394;10.414;2023-07-24T09:27:44;21.30;79.00
39519;DHT22;25200;53.394;10.414;2023-07-24T09:30:15;21.40;79.10
39519;DHT22;25200;53.394;10.414;2023-07-24T09:32:42;21.40;78.90
39519;DHT22;25200;53.394;10.414;2023-07-24T09:35:17;21.40;78.70
39519;DHT22;25200;53.394;10.414;2023-07-24T09:37:44;21.50;78.80
39519;DHT22;25200;53.394;10.414;2023-07-24T09:40:10;21.50;78.80
39519;DHT22;25200;53.394;10.414;2023-07-24T09:42:37;21.60;78.90
39519;DHT22;25200;53.394;10.414;2023-07-24T09:45:04;21.60;78.80
39519;DHT22;25200;53.394;10.414;2023-07-24T09:47:31;21.60;78.60
39519;DHT22;25200;53.394;10.414;2023-07-24T09:49:56;21.60;78.80
39519;DHT22;25200;53.394;10.414;2023-07-24T09:52:24;21.70;79.00
39519;DHT22;25200;53.394;10.414;2023-07-24T09:55:11;21.70;79.00
39519;DHT22;25200;53.394;10.414;2023-07-24T09:57:37;22.00;79.20
39519;DHT22;25200;53.394;10.414;2023-07-24T10:00:03;22.10;79.80
39519;DHT22;25200;53.394;10.414;2023-07-24T10:02:30;22.40;79.10
39519;DHT22;25200;53.394;10.414;2023-07-24T10:04:55;22.50;78.60
39519;DHT22;25200;53.394;10.414;2023-07-24T10:07:22;22.80;78.80
39519;DHT22;25200;53.394;10.414;2023-07-24T10:09:49;23.10;79.40
39519;DHT22;25200;53.394;10.414;2023-07-24T10:12:18;23.40;80.60
39519;DHT22;25200;53.394;10.414;2023-07-24T10:14:46;23.70;79.10
39519;DHT22;25200;53.394;10.414;2023-07-24T10:17:12;23.80;77.80
39519;DHT22;25200;53.394;10.414;2023-07-24T10:19:44;23.80;77.00
39519;DHT22;25200;53.394;10.414;2023-07-24T10:22:20;23.90;77.00
39519;DHT22;25200;53.394;10.414;2023-07-24T10:24:46;23.90;76.80
39519;DHT22;25200;53.394;10.414;2023-07-24T10:27:12;23.90;76.70
39519;DHT22;25200;53.394;10.414;2023-07-24T10:29:38;23.90;76.60
39519;DHT22;25200;53.394;10.414;2023-07-24T10:32:26;23.80;76.60
39519;DHT22;25200;53.394;10.414;2023-07-24T10:35:06;23.90;77.10
39519;DHT22;25200;53.394;10.414;2023-07-24T10:37:34;24.10;77.50
39519;DHT22;25200;53.394;10.414;2023-07-24T10:40:00;24.30;77.20
39519;DHT22;25200;53.394;10.414;2023-07-24T10:42:26;24.40;76.90
39519;DHT22;25200;53.394;10.414;2023-07-24T10:45:06;24.50;76.40
39519;DHT22;25200;53.394;10.414;2023-07-24T10:47:32;24.60;76.10
39519;DHT22;25200;53.394;10.414;2023-07-24T10:49:58;24.60;75.80
39519;DHT22;25200;53.394;10.414;2023-07-24T10:52:31;24.50;75.80
39519;DHT22;25200;53.394;10.414;2023-07-24T10:55:00;24.60;75.60
39519;DHT22;25200;53.394;10.414;2023-07-24T10:57:28;24.50;75.50
39519;DHT22;25200;53.394;10.414;2023-07-24T10:59:53;24.40;75.50
39519;DHT22;25200;53.394;10.414;2023-07-24T11:02:19;24.30;74.90
39519;DHT22;25200;53.394;10.414;2023-07-24T11:04:45;24.10;74.40
39519;DHT22;25200;53.394;10.414;2023-07-24T11:07:11;23.90;74.10
39519;DHT22;25200;53.394;10.414;2023-07-24T11:09:38;23.70;74.30
39519;DHT22;25200;53.394;10.414;2023-07-24T11:12:15;23.50;74.90
39519;DHT22;25200;53.394;10.414;2023-07-24T11:14:52;23.40;75.50
39519;DHT22;25200;53.394;10.414;2023-07-24T11:17:20;23.30;75.30
39519;DHT22;25200;53.394;10.414;2023-07-24T11:19:46;23.20;75.70
39519;DHT22;25200;53.394;10.414;2023-07-24T11:22:15;23.10;76.00
39519;DHT22;25200;53.394;10.414;2023-07-24T11:24:47;22.90;75.60
39519;DHT22;25200;53.394;10.414;2023-07-24T11:27:16;22.80;76.00
39519;DHT22;25200;53.394;10.414;2023-07-24T11:29:49;22.70;76.20
39519;DHT22;25200;53.394;10.414;2023-07-24T11:32:21;22.70;76.50
39519;DHT22;25200;53.394;10.414;2023-07-24T11:34:48;22.80;77.00
39519;DHT22;25200;53.394;10.414;2023-07-24T11:37:15;23.00;77.60
39519;DHT22;25200;53.394;10.414;2023-07-24T11:39:40;23.20;77.70
39519;DHT22;25200;53.394;10.414;2023-07-24T11:42:06;23.40;77.30
39519;DHT22;25200;53.394;10.414;2023-07-24T11:44:32;23.70;78.80
39519;DHT22;25200;53.394;10.414;2023-07-24T11:47:04;24.10;79.40
39519;DHT22;25200;53.394;10.414;2023-07-24T11:49:31;24.30;78.20
39519;DHT22;25200;53.394;10.414;2023-07-24T11:52:05;24.50;77.00
39519;DHT22;25200;53.394;10.414;2023-07-24T11:54:33;24.50;76.00
39519;DHT22;25200;53.394;10.414;2023-07-24T11:56:59;24.50;75.40
39519;DHT22;25200;53.394;10.414;2023-07-24T11:59:25;24.40;75.20
39519;DHT22;25200;53.394;10.414;2023-07-24T12:01:51;24.30;74.70
39519;DHT22;25200;53.394;10.414;2023-07-24T12:04:17;24.10;74.70
39519;DHT22;25200;53.394;10.414;2023-07-24T12:06:43;24.00;75.10
39519;DHT22;25200;53.394;10.414;2023-07-24T12:09:10;23.90;74.90
39519;DHT22;25200;53.394;10.414;2023-07-24T12:11:40;23.80;75.10
39519;DHT22;25200;53.394;10.414;2023-07-24T12:14:09;23.80;75.50
39519;DHT22;25200;53.394;10.414;2023-07-24T12:16:36;23.90;76.00
39519;DHT22;25200;53.394;10.414;2023-07-24T12:19:02;24.00;76.20
39519;DHT22;25200;53.394;10.414;2023-07-24T12:21:27;24.30;77.40
39519;DHT22;25200;53.394;10.414;2023-07-24T12:23:53;24.60;77.50
39519;DHT22;25200;53.394;10.414;2023-07-24T12:26:18;24.90;78.70
39519;DHT22;25200;53.394;10.414;2023-07-24T12:28:44;25.20;76.70
39519;DHT22;25200;53.394;10.414;2023-07-24T12:31:10;25.30;75.50
39519;DHT22;25200;53.394;10.414;2023-07-24T12:33:35;25.40;75.00
39519;DHT22;25200;53.394;10.414;2023-07-24T12:36:01;25.40;74.60
39519;DHT22;25200;53.394;10.414;2023-07-24T12:38:27;25.30;74.90
39519;DHT22;25200;53.394;10.414;2023-07-24T12:40:53;25.50;75.70
39519;DHT22;25200;53.394;10.414;2023-07-24T12:43:19;25.50;74.80
39519;DHT22;25200;53.394;10.414;2023-07-24T12:45:44;25.60;74.70
39519;DHT22;25200;53.394;10.414;2023-07-24T12:48:10;25.70;75.50
39519;DHT22;25200;53.394;10.414;2023-07-24T12:50:36;25.90;74.90
39519;DHT22;25200;53.394;10.414;2023-07-24T12:53:01;25.90;74.40
39519;DHT22;25200;53.394;10.414;2023-07-24T12:55:27;26.10;76.60
39519;DHT22;25200;53.394;10.414;2023-07-24T12:57:55;26.40;75.30
39519;DHT22;25200;53.394;10.414;2023-07-24T13:00:21;26.60;74.50
39519;DHT22;25200;53.394;10.414;2023-07-24T13:02:47;26.80;73.50
39519;DHT22;25200;53.394;10.414;2023-07-24T13:05:13;27.00;73.30
39519;DHT22;25200;53.394;10.414;2023-07-24T13:07:38;27.10;73.00
39519;DHT22;25200;53.394;10.414;2023-07-24T13:10:05;27.30;73.50
39519;DHT22;25200;53.394;10.414;2023-07-24T13:12:31;27.50;73.00
39519;DHT22;25200;53.394;10.414;2023-07-24T13:14:56;27.60;72.60
39519;DHT22;25200;53.394;10.414;2023-07-24T13:17:22;27.80;72.90
39519;DHT22;25200;53.394;10.414;2023-07-24T13:19:48;28.00;72.40
39519;DHT22;25200;53.394;10.414;2023-07-24T13:22:13;28.10;72.20
39519;DHT22;25200;53.394;10.414;2023-07-24T13:24:39;28.20;72.70
39519;DHT22;25200;53.394;10.414;2023-07-24T13:27:05;28.40;72.20
39519;DHT22;25200;53.394;10.414;2023-07-24T13:29:31;28.50;70.80
39519;DHT22;25200;53.394;10.414;2023-07-24T13:31:57;28.60;69.90
39519;DHT22;25200;53.394;10.414;2023-07-24T13:34:24;28.70;70.30
39519;DHT22;25200;53.394;10.414;2023-07-24T13:36:50;28.90;69.70
39519;DHT22;25200;53.394;10.414;2023-07-24T13:39:15;29.10;71.20
39519;DHT22;25200;53.394;10.414;2023-07-24T13:41:42;29.20;70.60
39519;DHT22;25200;53.394;10.414;2023-07-24T13:44:08;29.30;70.40
39519;DHT22;25200;53.394;10.414;2023-07-24T13:46:33;29.20;70.00
39519;DHT22;25200;53.394;10.414;2023-07-24T13:48:59;29.00;69.70
39519;DHT22;25200;53.394;10.414;2023-07-24T13:51:25;28.80;70.30
39519;DHT22;25200;53.394;10.414;2023-07-24T13:53:50;28.60;69.20
39519;DHT22;25200;53.394;10.414;2023-07-24T13:56:17;28.30;68.60
39519;DHT22;25200;53.394;10.414;2023-07-24T13:58:44;28.00;68.20
39519;DHT22;25200;53.394;10.414;2023-07-24T14:01:10;27.70;68.80
39519;DHT22;25200;53.394;10.414;2023-07-24T14:03:36;27.50;68.40
39519;DHT22;25200;53.394;10.414;2023-07-24T14:06:02;27.30;68.10
39519;DHT22;25200;53.394;10.414;2023-07-24T14:08:28;27.10;68.10
39519;DHT22;25200;53.394;10.414;2023-07-24T14:10:53;27.00;68.60
39519;DHT22;25200;53.394;10.414;2023-07-24T14:13:19;27.00;69.50
39519;DHT22;25200;53.394;10.414;2023-07-24T14:15:45;27.10;69.30
39519;DHT22;25200;53.394;10.414;2023-07-24T14:18:10;27.20;68.90
39519;DHT22;25200;53.394;10.414;2023-07-24T14:20:36;27.20;69.60
39519;DHT22;25200;53.394;10.414;2023-07-24T14:23:02;27.20;69.20
39519;DHT22;25200;53.394;10.414;2023-07-24T14:25:28;27.20;68.60
39519;DHT22;25200;53.394;10.414;2023-07-24T14:27:54;27.20;68.40
39519;DHT22;25200;53.394;10.414;2023-07-24T14:30:19;27.10;68.20
39519;DHT22;25200;53.394;10.414;2023-07-24T14:32:45;27.00;68.40
39519;DHT22;25200;53.394;10.414;2023-07-24T14:35:11;27.00;68.90
39519;DHT22;25200;53.394;10.414;2023-07-24T14:37:36;27.10;69.00
39519;DHT22;25200;53.394;10.414;2023-07-24T14:40:02;27.20;69.10
39519;DHT22;25200;53.394;10.414;2023-07-24T14:42:28;27.20;68.70
39519;DHT22;25200;53.394;10.414;2023-07-24T14:44:54;27.20;68.50
39519;DHT22;25200;53.394;10.414;2023-07-24T14:47:20;27.10;68.10
39519;DHT22;25200;53.394;10.414;2023-07-24T14:49:45;27.00;67.80
39519;DHT22;25200;53.394;10.414;2023-07-24T14:52:11;26.80;67.60
39519;DHT22;25200;53.394;10.414;2023-07-24T14:54:36;26.70;67.70
39519;DHT22;25200;53.394;10.414;2023-07-24T14:57:02;26.60;67.90
39519;DHT22;25200;53.394;10.414;2023-07-24T14:59:28;26.50;68.20
39519;DHT22;25200;53.394;10.414;2023-07-24T15:01:54;26.30;67.60
39519;DHT22;25200;53.394;10.414;2023-07-24T15:04:20;26.10;67.70
39519;DHT22;25200;53.394;10.414;2023-07-24T15:06:45;26.00;67.30
39519;DHT22;25200;53.394;10.414;2023-07-24T15:09:11;25.80;67.90
39519;DHT22;25200;53.394;10.414;2023-07-24T15:11:37;25.70;68.00
39519;DHT22;25200;53.394;10.414;2023-07-24T15:14:02;25.70;68.80
39519;DHT22;25200;53.394;10.414;2023-07-24T15:16:28;25.70;69.00